Time;durP1;ratioP1;P1;durP2;ratioP2;P2;SDS_P1;SDS_P2;PMS_P1;PMS_P2;Temp;Humidity;BMP_temperature;BMP_pressure;BME280_temperature;BME280_humidity;BME280_pressure;Samples;Min_cycle;Max_cycle;Signal;HPM_P1;HPM_P2
2022/07/14 00:00:30;;;;;;;3.10;1.42;;;;;;;;;;4821672;29;20056;-61
2022/07/14 00:02:55;;;;;;;4.05;1.13;;;;;;;;;;4819730;29;20047;-61
2022/07/14 00:05:22;;;;;;;3.03;1.10;;;;;;;;;;4817588;29;20510;-60
2022/07/14 00:07:48;;;;;;;1.85;1.13;;;;;;;;;;4821661;29;20047;-60
2022/07/14 00:10:14;;;;;;;2.50;1.23;;;;;;;;;;4818898;29;20554;-60
2022/07/14 00:12:39;;;;;;;2.90;1.23;;;;;;;;;;4820371;29;20060;-60
2022/07/14 00:15:05;;;;;;;1.25;1.00;;;;;;;;;;4813800;29;20129;-60
2022/07/14 00:17:31;;;;;;;7.85;1.30;;;;;;;;;;4818426;29;20043;-61
2022/07/14 00:19:56;;;;;;;2.70;1.20;;;;;;;;;;4940056;24;20137;-60
2022/07/14 00:22:21;;;;;;;1.38;1.10;;;;;;;;;;4817713;29;20038;-61
2022/07/14 00:24:47;;;;;;;1.08;0.82;;;;;;;;;;4834793;29;20177;-63
2022/07/14 00:27:12;;;;;;;1.88;1.10;;;;;;;;;;4831860;29;20087;-61
2022/07/14 00:29:38;;;;;;;6.05;1.17;;;;;;;;;;4833793;29;20046;-63
2022/07/14 00:32:07;;;;;;;2.03;1.00;;;;;;;;;;4832622;29;20052;-69
2022/07/14 00:34:32;;;;;;;2.17;1.20;;;;;;;;;;4834857;29;20034;-69
2022/07/14 00:36:58;;;;;;;3.55;0.93;;;;;;;;;;4832598;29;20361;-69
2022/07/14 00:39:24;;;;;;;3.67;1.02;;;;;;;;;;4833423;29;20061;-70
2022/07/14 00:41:50;;;;;;;1.45;0.80;;;;;;;;;;4830958;29;20035;-69
2022/07/14 00:44:15;;;;;;;1.80;0.90;;;;;;;;;;4829579;29;20053;-68
2022/07/14 00:46:40;;;;;;;1.30;1.00;;;;;;;;;;4833288;29;20089;-68
2022/07/14 00:49:06;;;;;;;1.58;1.15;;;;;;;;;;4838395;29;20062;-68
2022/07/14 00:51:31;;;;;;;1.70;1.00;;;;;;;;;;4837257;29;20394;-67
2022/07/14 00:53:57;;;;;;;1.30;1.00;;;;;;;;;;4836077;29;20433;-68
2022/07/14 00:56:22;;;;;;;1.85;0.95;;;;;;;;;;4833104;29;20054;-68
2022/07/14 00:58:48;;;;;;;1.70;1.17;;;;;;;;;;4840455;29;20502;-69
2022/07/14 01:01:14;;;;;;;3.95;1.08;;;;;;;;;;4837786;29;20061;-67
2022/07/14 01:03:39;;;;;;;2.10;0.93;;;;;;;;;;4831636;29;20125;-67
2022/07/14 01:06:05;;;;;;;2.53;1.10;;;;;;;;;;4834634;29;20038;-67
2022/07/14 01:08:31;;;;;;;2.55;1.27;;;;;;;;;;4837447;29;20077;-67
2022/07/14 01:10:56;;;;;;;1.98;1.10;;;;;;;;;;4838833;29;20122;-68
2022/07/14 01:13:22;;;;;;;1.90;1.25;;;;;;;;;;4834880;29;20034;-68
2022/07/14 01:15:47;;;;;;;1.92;1.27;;;;;;;;;;4834652;29;20022;-69
2022/07/14 01:18:13;;;;;;;2.63;1.13;;;;;;;;;;4841069;29;20177;-69
2022/07/14 01:20:39;;;;;;;0.93;0.80;;;;;;;;;;4819845;29;20046;-68
2022/07/14 01:23:04;;;;;;;2.42;1.20;;;;;;;;;;4818204;29;20102;-69
2022/07/14 01:25:31;;;;;;;12.40;1.30;;;;;;;;;;4817653;29;20379;-68
2022/07/14 01:27:56;;;;;;;5.38;1.05;;;;;;;;;;4820106;29;20073;-69
2022/07/14 01:30:21;;;;;;;1.40;1.05;;;;;;;;;;4816530;29;20129;-68
2022/07/14 01:32:47;;;;;;;2.15;0.90;;;;;;;;;;4797985;29;20499;-69
2022/07/14 01:35:12;;;;;;;2.83;1.10;;;;;;;;;;4818078;29;20493;-69
2022/07/14 01:37:38;;;;;;;1.55;1.05;;;;;;;;;;4819232;29;20688;-68
2022/07/14 01:40:04;;;;;;;2.00;1.08;;;;;;;;;;4815499;29;20057;-68
2022/07/14 01:42:30;;;;;;;1.20;0.90;;;;;;;;;;4816607;29;20094;-68
2022/07/14 01:44:55;;;;;;;2.40;1.00;;;;;;;;;;4819769;29;20428;-69
2022/07/14 01:47:21;;;;;;;1.27;1.17;;;;;;;;;;4817520;29;20046;-68
2022/07/14 01:49:46;;;;;;;1.45;1.23;;;;;;;;;;4820046;29;20034;-69
2022/07/14 01:52:12;;;;;;;1.60;1.00;;;;;;;;;;4821557;29;20168;-69
2022/07/14 01:54:37;;;;;;;1.02;0.98;;;;;;;;;;4821784;29;20568;-68
2022/07/14 01:57:03;;;;;;;3.15;1.30;;;;;;;;;;4800721;29;20623;-69
2022/07/14 01:59:28;;;;;;;1.50;1.20;;;;;;;;;;4815265;29;20386;-67
2022/07/14 02:01:54;;;;;;;2.65;1.05;;;;;;;;;;4819720;29;20157;-69
2022/07/14 02:04:20;;;;;;;2.25;1.08;;;;;;;;;;4821467;29;20041;-69
2022/07/14 02:06:51;;;;;;;1.30;1.20;;;;;;;;;;4818919;29;20029;-69
2022/07/14 02:09:17;;;;;;;2.47;0.93;;;;;;;;;;4820482;29;20038;-68
2022/07/14 02:14:28;;;;;;;2.33;1.25;;;;;;;;;;4818683;29;20051;-68
2022/07/14 02:16:54;;;;;;;1.92;0.95;;;;;;;;;;4820479;29;20045;-69
2022/07/14 02:19:20;;;;;;;1.55;1.00;;;;;;;;;;4798069;29;20034;-67
2022/07/14 02:21:46;;;;;;;2.35;1.20;;;;;;;;;;4821466;29;20442;-68
2022/07/14 02:24:13;;;;;;;1.77;1.45;;;;;;;;;;4819328;29;20086;-67
2022/07/14 02:26:39;;;;;;;3.13;1.10;;;;;;;;;;4820206;29;20517;-67
2022/07/14 02:29:05;;;;;;;3.15;1.00;;;;;;;;;;4821505;29;20042;-68
2022/07/14 02:31:31;;;;;;;1.75;1.33;;;;;;;;;;4823113;29;20108;-67
2022/07/14 02:33:57;;;;;;;1.90;1.10;;;;;;;;;;4804336;29;20547;-68
2022/07/14 02:36:23;;;;;;;2.60;1.00;;;;;;;;;;4802205;29;20034;-70
2022/07/14 02:38:49;;;;;;;2.40;1.20;;;;;;;;;;4817577;29;20077;-69
2022/07/14 02:41:15;;;;;;;1.55;1.10;;;;;;;;;;4818110;29;20050;-69
2022/07/14 02:43:40;;;;;;;1.60;0.80;;;;;;;;;;4812881;29;20050;-69
2022/07/14 02:46:06;;;;;;;1.23;1.13;;;;;;;;;;4813632;29;20133;-69
2022/07/14 02:48:31;;;;;;;1.23;1.13;;;;;;;;;;4801243;29;20503;-68
2022/07/14 02:51:01;;;;;;;2.35;1.17;;;;;;;;;;4821995;29;20133;-67
2022/07/14 02:53:27;;;;;;;3.38;1.17;;;;;;;;;;4799483;29;20395;-67
2022/07/14 02:55:53;;;;;;;3.70;1.45;;;;;;;;;;4816846;29;20065;-68
2022/07/14 02:58:19;;;;;;;1.65;1.10;;;;;;;;;;4817342;29;20033;-67
2022/07/14 03:00:44;;;;;;;1.38;1.05;;;;;;;;;;4812797;29;20665;-68
2022/07/14 03:03:10;;;;;;;4.32;1.30;;;;;;;;;;4820388;29;20046;-69
2022/07/14 03:05:35;;;;;;;1.20;1.10;;;;;;;;;;4821300;29;20042;-69
2022/07/14 03:08:01;;;;;;;6.03;1.00;;;;;;;;;;4812777;29;20092;-70
2022/07/14 03:10:26;;;;;;;1.15;1.05;;;;;;;;;;4817546;29;20499;-70
2022/07/14 03:12:52;;;;;;;2.40;1.10;;;;;;;;;;4819712;29;20521;-69
2022/07/14 03:15:18;;;;;;;2.28;1.05;;;;;;;;;;4814407;29;20121;-69
2022/07/14 03:17:43;;;;;;;1.83;1.10;;;;;;;;;;4822410;29;20146;-68
2022/07/14 03:20:09;;;;;;;4.00;1.10;;;;;;;;;;4816811;29;20035;-69
2022/07/14 03:22:34;;;;;;;1.98;1.13;;;;;;;;;;4810298;29;20053;-69
2022/07/14 03:25:00;;;;;;;2.33;1.20;;;;;;;;;;4814309;29;20064;-68
2022/07/14 03:27:26;;;;;;;1.58;1.23;;;;;;;;;;4815737;29;20038;-69
2022/07/14 03:29:51;;;;;;;2.08;1.17;;;;;;;;;;4814944;29;20038;-69
2022/07/14 03:32:16;;;;;;;1.23;1.10;;;;;;;;;;4815547;29;20043;-68
2022/07/14 03:34:42;;;;;;;1.65;1.30;;;;;;;;;;4809280;29;20133;-68
2022/07/14 03:37:09;;;;;;;2.72;1.10;;;;;;;;;;4808944;29;20595;-68
2022/07/14 03:39:34;;;;;;;1.52;1.35;;;;;;;;;;4812304;29;20133;-68
2022/07/14 03:41:59;;;;;;;1.30;1.10;;;;;;;;;;4810821;29;20065;-68
2022/07/14 03:44:25;;;;;;;2.58;1.30;;;;;;;;;;4814940;29;20756;-67
2022/07/14 03:46:51;;;;;;;5.13;1.90;;;;;;;;;;4817385;29;20404;-67
2022/07/14 03:49:16;;;;;;;1.55;1.20;;;;;;;;;;4808946;29;20039;-68
2022/07/14 03:51:43;;;;;;;1.52;1.30;;;;;;;;;;4813393;29;20027;-67
2022/07/14 03:54:08;;;;;;;1.23;1.05;;;;;;;;;;4814592;29;20499;-68
2022/07/14 03:56:34;;;;;;;3.35;1.20;;;;;;;;;;4813996;29;20053;-67
2022/07/14 03:58:59;;;;;;;2.67;1.42;;;;;;;;;;4820511;29;20402;-70
2022/07/14 04:01:24;;;;;;;2.42;1.30;;;;;;;;;;4814005;29;20416;-70
2022/07/14 04:03:51;;;;;;;2.83;1.27;;;;;;;;;;4818292;29;20027;-69
2022/07/14 04:06:16;;;;;;;3.30;1.50;;;;;;;;;;4808295;29;20555;-69
2022/07/14 04:08:44;;;;;;;3.95;1.35;;;;;;;;;;4809102;29;20051;-69
2022/07/14 04:11:09;;;;;;;2.15;1.50;;;;;;;;;;4811685;29;20042;-69
2022/07/14 04:13:35;;;;;;;4.35;1.70;;;;;;;;;;4813590;29;20051;-68
2022/07/14 04:16:00;;;;;;;2.67;1.42;;;;;;;;;;4814695;29;20113;-68
2022/07/14 04:18:25;;;;;;;1.98;1.25;;;;;;;;;;4812280;29;20049;-68
2022/07/14 04:20:51;;;;;;;3.05;1.25;;;;;;;;;;4815187;29;20038;-69
2022/07/14 04:23:17;;;;;;;2.05;1.52;;;;;;;;;;4813513;29;20046;-69
2022/07/14 04:25:42;;;;;;;2.75;1.55;;;;;;;;;;4810757;29;20072;-68
2022/07/14 04:28:07;;;;;;;2.13;1.40;;;;;;;;;;4818849;29;20030;-68
2022/07/14 04:30:33;;;;;;;2.80;1.25;;;;;;;;;;4820184;29;20076;-68
2022/07/14 04:32:58;;;;;;;1.80;1.38;;;;;;;;;;4812071;29;20094;-69
2022/07/14 04:35:24;;;;;;;1.98;1.30;;;;;;;;;;4816247;29;20435;-68
2022/07/14 04:37:49;;;;;;;1.63;1.30;;;;;;;;;;4816167;29;20377;-68
2022/07/14 04:40:14;;;;;;;3.65;2.30;;;;;;;;;;4819305;29;20058;-69
2022/07/14 04:42:40;;;;;;;2.38;1.08;;;;;;;;;;4816966;29;20038;-68
2022/07/14 04:45:06;;;;;;;1.92;1.20;;;;;;;;;;4817646;29;20396;-68
2022/07/14 04:47:31;;;;;;;4.00;1.27;;;;;;;;;;4817038;29;20060;-68
2022/07/14 04:52:45;;;;;;;1.73;1.20;;;;;;;;;;4814733;29;20559;-68
2022/07/14 04:55:11;;;;;;;1.23;1.13;;;;;;;;;;4817797;29;20044;-68
2022/07/14 04:57:36;;;;;;;2.33;1.48;;;;;;;;;;4813862;29;20050;-67
2022/07/14 05:00:02;;;;;;;3.05;1.20;;;;;;;;;;4815910;29;20051;-67
2022/07/14 05:02:28;;;;;;;1.92;1.38;;;;;;;;;;4818927;29;20069;-69
2022/07/14 05:04:54;;;;;;;3.58;1.50;;;;;;;;;;4810058;29;20043;-68
2022/07/14 05:07:19;;;;;;;2.97;1.30;;;;;;;;;;4816480;29;20089;-67
2022/07/14 05:09:44;;;;;;;3.40;1.52;;;;;;;;;;4817388;29;20582;-68
2022/07/14 05:12:13;;;;;;;2.35;1.30;;;;;;;;;;4816940;29;20054;-68
2022/07/14 05:14:38;;;;;;;2.38;1.48;;;;;;;;;;4819188;29;20049;-68
2022/07/14 05:17:03;;;;;;;2.67;1.73;;;;;;;;;;4803648;29;20058;-68
2022/07/14 05:19:29;;;;;;;2.75;1.30;;;;;;;;;;4815168;29;20057;-67
2022/07/14 05:21:54;;;;;;;2.33;1.50;;;;;;;;;;4818354;29;20475;-68
2022/07/14 05:24:20;;;;;;;7.15;1.50;;;;;;;;;;4816851;29;20042;-68
2022/07/14 05:26:45;;;;;;;4.45;1.60;;;;;;;;;;4816434;29;20101;-67
2022/07/14 05:29:11;;;;;;;1.50;1.35;;;;;;;;;;4818010;29;20144;-67
2022/07/14 05:31:36;;;;;;;6.35;1.58;;;;;;;;;;4818568;29;20047;-68
2022/07/14 05:34:02;;;;;;;2.53;1.58;;;;;;;;;;4817328;29;20090;-68
2022/07/14 05:36:27;;;;;;;3.03;1.50;;;;;;;;;;4823020;29;20045;-68
2022/07/14 05:38:53;;;;;;;2.60;1.65;;;;;;;;;;4819495;29;20503;-69
2022/07/14 05:41:19;;;;;;;3.08;1.67;;;;;;;;;;4817700;29;20070;-67
2022/07/14 05:43:46;;;;;;;1.83;1.50;;;;;;;;;;4817428;29;20411;-69
2022/07/14 05:46:12;;;;;;;7.32;1.95;;;;;;;;;;4822796;29;20547;-68
2022/07/14 05:48:37;;;;;;;5.82;1.50;;;;;;;;;;4819424;29;20122;-68
2022/07/14 05:51:23;;;;;;;1.73;1.40;;;;;;;;;;4817217;29;20786;-68
2022/07/14 05:53:49;;;;;;;1.88;1.60;;;;;;;;;;4819111;29;20121;-68
2022/07/14 05:56:18;;;;;;;5.70;1.92;;;;;;;;;;4812466;29;20129;-68
2022/07/14 05:58:45;;;;;;;3.05;1.50;;;;;;;;;;4817019;29;20128;-68
2022/07/14 06:01:11;;;;;;;4.10;2.00;;;;;;;;;;4799028;29;20037;-68
2022/07/14 06:03:37;;;;;;;5.57;2.10;;;;;;;;;;4819648;29;20043;-68
2022/07/14 06:06:04;;;;;;;3.05;2.00;;;;;;;;;;4817054;29;20456;-68
2022/07/14 06:08:30;;;;;;;4.47;1.73;;;;;;;;;;4822974;29;20065;-67
2022/07/14 06:10:56;;;;;;;5.18;2.10;;;;;;;;;;4819579;29;20533;-68
2022/07/14 06:13:27;;;;;;;10.23;2.42;;;;;;;;;;4823348;29;20061;-68
2022/07/14 06:15:53;;;;;;;4.15;2.33;;;;;;;;;;4817893;29;20030;-68
2022/07/14 06:18:18;;;;;;;8.35;2.55;;;;;;;;;;4815058;29;20105;-68
2022/07/14 06:20:44;;;;;;;3.53;1.70;;;;;;;;;;4817301;29;20579;-68
2022/07/14 06:23:10;;;;;;;5.43;2.20;;;;;;;;;;4822827;29;20507;-69
2022/07/14 06:25:38;;;;;;;10.90;1.80;;;;;;;;;;4823382;29;21184;-68
2022/07/14 06:28:04;;;;;;;6.75;1.83;;;;;;;;;;4814275;29;20065;-68
2022/07/14 06:30:30;;;;;;;8.27;2.00;;;;;;;;;;4816220;29;20043;-68
2022/07/14 06:32:56;;;;;;;5.70;2.20;;;;;;;;;;4816000;29;20519;-68
2022/07/14 06:35:21;;;;;;;4.63;1.92;;;;;;;;;;4818517;29;20046;-68
2022/07/14 06:37:46;;;;;;;6.10;2.30;;;;;;;;;;4815467;29;20066;-68
2022/07/14 06:40:12;;;;;;;6.47;2.08;;;;;;;;;;4819962;29;20030;-68
2022/07/14 06:42:37;;;;;;;4.28;1.85;;;;;;;;;;4811630;29;20039;-69
2022/07/14 06:45:03;;;;;;;8.43;2.17;;;;;;;;;;4821954;29;21547;-67
2022/07/14 06:47:30;;;;;;;3.70;1.95;;;;;;;;;;4816822;29;20050;-68
2022/07/14 06:49:58;;;;;;;5.05;1.70;;;;;;;;;;4821339;29;20583;-68
2022/07/14 06:52:24;;;;;;;3.88;1.80;;;;;;;;;;4817684;29;20498;-68
2022/07/14 06:54:50;;;;;;;5.80;1.98;;;;;;;;;;4821394;29;20063;-69
2022/07/14 06:57:15;;;;;;;5.93;1.80;;;;;;;;;;4814764;29;20129;-68
2022/07/14 06:59:41;;;;;;;4.20;2.05;;;;;;;;;;4817316;29;20117;-68
2022/07/14 07:02:06;;;;;;;4.05;2.08;;;;;;;;;;4816302;29;20065;-67
2022/07/14 07:04:31;;;;;;;3.75;1.95;;;;;;;;;;4819217;29;20030;-68
2022/07/14 07:06:57;;;;;;;3.67;1.80;;;;;;;;;;4816390;29;20558;-69
2022/07/14 07:09:22;;;;;;;2.80;1.83;;;;;;;;;;4819159;29;20039;-68
2022/07/14 07:11:51;;;;;;;7.95;2.05;;;;;;;;;;4821583;29;20049;-67
2022/07/14 07:14:17;;;;;;;4.38;2.00;;;;;;;;;;4816668;29;20035;-67
2022/07/14 07:16:47;;;;;;;5.60;2.10;;;;;;;;;;4814240;29;20517;-68
2022/07/14 07:19:13;;;;;;;3.95;1.67;;;;;;;;;;4809118;29;20050;-67
2022/07/14 07:21:39;;;;;;;4.05;1.80;;;;;;;;;;4819244;29;20474;-67
2022/07/14 07:24:04;;;;;;;3.92;2.03;;;;;;;;;;4810956;29;20133;-67
2022/07/14 07:26:38;;;;;;;7.55;2.00;;;;;;;;;;4815896;29;20050;-68
2022/07/14 07:29:05;;;;;;;8.52;2.42;;;;;;;;;;4816193;29;20053;-67
2022/07/14 07:31:31;;;;;;;5.00;1.90;;;;;;;;;;4817713;29;20029;-67
2022/07/14 07:33:57;;;;;;;5.70;1.90;;;;;;;;;;4814453;29;20038;-67
2022/07/14 07:36:23;;;;;;;3.35;1.83;;;;;;;;;;4799825;29;20122;-67
2022/07/14 07:38:48;;;;;;;7.00;2.58;;;;;;;;;;4817682;29;20129;-68
2022/07/14 07:41:13;;;;;;;5.00;2.10;;;;;;;;;;4819459;29;20107;-68
2022/07/14 07:43:39;;;;;;;4.45;2.00;;;;;;;;;;4814035;29;20039;-67
2022/07/14 07:46:05;;;;;;;2.97;1.70;;;;;;;;;;4813439;29;20098;-68
2022/07/14 07:48:31;;;;;;;6.00;1.80;;;;;;;;;;4813451;29;20047;-68
2022/07/14 07:50:57;;;;;;;3.00;1.77;;;;;;;;;;4816770;29;20454;-67
2022/07/14 07:53:22;;;;;;;8.52;2.10;;;;;;;;;;4817572;29;20034;-67
2022/07/14 07:55:48;;;;;;;7.70;2.33;;;;;;;;;;4815671;29;20050;-68
2022/07/14 07:58:13;;;;;;;4.60;2.13;;;;;;;;;;4799003;29;20030;-68
2022/07/14 08:00:39;;;;;;;9.27;2.00;;;;;;;;;;4813013;29;20498;-67
2022/07/14 08:03:05;;;;;;;5.43;2.20;;;;;;;;;;4820077;29;20054;-67
2022/07/14 08:05:31;;;;;;;5.18;2.30;;;;;;;;;;4815483;29;20045;-67
2022/07/14 08:07:56;;;;;;;5.95;2.00;;;;;;;;;;4817879;29;20085;-67
2022/07/14 08:10:22;;;;;;;4.72;1.90;;;;;;;;;;4816293;29;20038;-67
2022/07/14 08:12:48;;;;;;;4.78;2.25;;;;;;;;;;4823376;29;20121;-68
2022/07/14 08:15:14;;;;;;;5.30;2.33;;;;;;;;;;4818736;29;20902;-67
2022/07/14 08:17:40;;;;;;;4.50;2.08;;;;;;;;;;4818224;29;20085;-67
2022/07/14 08:20:08;;;;;;;4.35;2.50;;;;;;;;;;4817385;29;20046;-67
2022/07/14 08:22:34;;;;;;;8.18;2.17;;;;;;;;;;4823885;29;20038;-67
2022/07/14 08:25:00;;;;;;;6.80;2.40;;;;;;;;;;4816751;29;20038;-67
2022/07/14 08:27:29;;;;;;;4.10;2.00;;;;;;;;;;4812591;29;20061;-68
2022/07/14 08:29:54;;;;;;;4.40;2.10;;;;;;;;;;4818985;29;20034;-67
2022/07/14 08:32:45;;;;;;;3.38;2.13;;;;;;;;;;4819310;29;20101;-67
2022/07/14 08:35:12;;;;;;;4.00;2.00;;;;;;;;;;4815445;29;20273;-66
2022/07/14 08:37:39;;;;;;;5.90;2.38;;;;;;;;;;4815167;29;20073;-66
2022/07/14 08:40:07;;;;;;;9.90;1.90;;;;;;;;;;4819455;29;20723;-69
2022/07/14 08:42:33;;;;;;;3.35;1.70;;;;;;;;;;4814275;29;20074;-68
2022/07/14 08:44:59;;;;;;;5.10;2.00;;;;;;;;;;4817958;29;20452;-67
2022/07/14 08:47:25;;;;;;;7.10;2.10;;;;;;;;;;4813687;29;20035;-68
2022/07/14 08:49:51;;;;;;;3.22;2.08;;;;;;;;;;4802357;29;20046;-68
2022/07/14 08:52:20;;;;;;;3.13;2.00;;;;;;;;;;4815885;29;20034;-69
2022/07/14 08:54:46;;;;;;;4.55;2.13;;;;;;;;;;4817097;29;20126;-68
2022/07/14 08:57:13;;;;;;;4.95;2.00;;;;;;;;;;4806013;29;20042;-67
2022/07/14 08:59:38;;;;;;;3.60;2.08;;;;;;;;;;4822302;29;20047;-67
2022/07/14 09:02:04;;;;;;;8.30;2.10;;;;;;;;;;4802688;29;20498;-67
2022/07/14 09:04:30;;;;;;;3.40;2.10;;;;;;;;;;4815836;29;20022;-67
2022/07/14 09:06:57;;;;;;;4.38;2.13;;;;;;;;;;4814854;29;20114;-67
2022/07/14 09:09:27;;;;;;;3.97;2.15;;;;;;;;;;4817595;29;20050;-67
2022/07/14 09:12:00;;;;;;;3.22;2.08;;;;;;;;;;4819164;29;20091;-67
2022/07/14 09:14:27;;;;;;;5.68;2.22;;;;;;;;;;4814694;29;20064;-67
2022/07/14 09:17:13;;;;;;;6.40;2.30;;;;;;;;;;4819191;29;20046;-67
2022/07/14 09:20:10;;;;;;;4.15;2.30;;;;;;;;;;4815635;29;20095;-68
2022/07/14 09:22:38;;;;;;;2.42;1.85;;;;;;;;;;4803213;29;20050;-67
2022/07/14 09:25:07;;;;;;;3.08;1.90;;;;;;;;;;4816476;29;20034;-67
2022/07/14 09:27:32;;;;;;;3.28;1.95;;;;;;;;;;4817554;29;20038;-67
2022/07/14 09:29:58;;;;;;;4.55;2.25;;;;;;;;;;4819373;29;20050;-67
2022/07/14 09:32:42;;;;;;;7.50;2.25;;;;;;;;;;4817528;29;20407;-67
2022/07/14 09:35:09;;;;;;;7.95;2.20;;;;;;;;;;4814750;29;20057;-67
2022/07/14 09:37:38;;;;;;;3.95;2.20;;;;;;;;;;4818845;29;20054;-67
2022/07/14 09:40:06;;;;;;;4.80;2.30;;;;;;;;;;4817014;29;20042;-67
2022/07/14 09:43:12;;;;;;;4.20;2.15;;;;;;;;;;4815998;29;20901;-67
2022/07/14 09:45:41;;;;;;;3.22;1.80;;;;;;;;;;4821022;29;20053;-67
2022/07/14 09:48:18;;;;;;;5.93;2.20;;;;;;;;;;4815690;29;20045;-67
2022/07/14 09:50:47;;;;;;;5.55;2.22;;;;;;;;;;4817129;29;20051;-68
2022/07/14 09:53:15;;;;;;;11.95;2.30;;;;;;;;;;4818717;29;20488;-67
2022/07/14 09:55:50;;;;;;;3.63;2.25;;;;;;;;;;4816527;29;20045;-67
2022/07/14 09:58:15;;;;;;;7.63;2.20;;;;;;;;;;4815341;29;20034;-68
2022/07/14 10:00:42;;;;;;;5.22;2.80;;;;;;;;;;4815872;29;20031;-68
2022/07/14 10:03:08;;;;;;;8.88;2.20;;;;;;;;;;4814853;29;20541;-68
2022/07/14 10:05:34;;;;;;;6.60;2.72;;;;;;;;;;4811936;29;20046;-66
2022/07/14 10:08:05;;;;;;;10.55;2.30;;;;;;;;;;4808267;29;20046;-68
2022/07/14 10:10:34;;;;;;;3.97;1.90;;;;;;;;;;4816873;29;20487;-67
2022/07/14 10:13:02;;;;;;;2.75;2.05;;;;;;;;;;4817614;29;20109;-69
2022/07/14 10:15:29;;;;;;;5.55;2.03;;;;;;;;;;4814582;29;20099;-69
2022/07/14 10:17:56;;;;;;;6.18;2.20;;;;;;;;;;4811194;29;20043;-70
2022/07/14 10:20:22;;;;;;;3.42;2.10;;;;;;;;;;4808969;29;20108;-67
2022/07/14 10:22:49;;;;;;;9.70;2.53;;;;;;;;;;4818178;29;20050;-69
2022/07/14 10:25:14;;;;;;;3.35;2.10;;;;;;;;;;4819094;29;20061;-70
2022/07/14 10:27:41;;;;;;;7.53;2.60;;;;;;;;;;4813183;29;20463;-69
2022/07/14 10:30:07;;;;;;;6.53;2.30;;;;;;;;;;4814992;29;20039;-68
2022/07/14 10:32:51;;;;;;;8.55;2.30;;;;;;;;;;4796261;29;20073;-69
2022/07/14 10:35:26;;;;;;;5.93;2.30;;;;;;;;;;4814613;29;20082;-71
2022/07/14 10:38:21;;;;;;;7.15;2.50;;;;;;;;;;4811158;29;20046;-70
2022/07/14 10:41:05;;;;;;;6.45;2.00;;;;;;;;;;4812384;29;20546;-67
2022/07/14 10:44:25;;;;;;;3.05;2.10;;;;;;;;;;4817548;29;20038;-67
2022/07/14 10:47:06;;;;;;;6.13;2.03;;;;;;;;;;4724209;30;20048;-67
2022/07/14 10:50:01;;;;;;;4.50;2.40;;;;;;;;;;4806534;29;20142;-68
2022/07/14 10:52:30;;;;;;;4.70;2.05;;;;;;;;;;4818925;29;20030;-69
2022/07/14 10:55:16;;;;;;;3.10;2.22;;;;;;;;;;4808225;29;20487;-67
2022/07/14 10:58:07;;;;;;;4.90;2.60;;;;;;;;;;4822467;29;20054;-68
2022/07/14 11:00:44;;;;;;;4.25;2.45;;;;;;;;;;4782954;29;20043;-68
2022/07/14 11:03:39;;;;;;;4.00;2.05;;;;;;;;;;4819604;29;21387;-68
2022/07/14 11:06:07;;;;;;;7.05;2.15;;;;;;;;;;4817361;29;20569;-66
2022/07/14 11:08:38;;;;;;;3.95;2.17;;;;;;;;;;4802991;29;20046;-67
2022/07/14 11:11:08;;;;;;;8.45;1.98;;;;;;;;;;4811474;29;21157;-69
2022/07/14 11:13:54;;;;;;;3.85;2.28;;;;;;;;;;4799448;29;20483;-69
2022/07/14 11:16:50;;;;;;;4.88;2.35;;;;;;;;;;4809904;29;20050;-70
2022/07/14 11:19:37;;;;;;;4.15;2.10;;;;;;;;;;4813832;29;20038;-69
2022/07/14 11:22:20;;;;;;;4.00;2.65;;;;;;;;;;4817631;29;20118;-68
2022/07/14 11:24:52;;;;;;;4.03;2.00;;;;;;;;;;4814664;29;20064;-66
2022/07/14 11:27:31;;;;;;;10.65;2.50;;;;;;;;;;4815652;29;20095;-66
2022/07/14 11:30:16;;;;;;;6.35;2.03;;;;;;;;;;4809709;29;20042;-65
2022/07/14 11:32:42;;;;;;;3.85;1.92;;;;;;;;;;4816526;29;20050;-65
2022/07/14 11:37:58;;;;;;;4.18;1.80;;;;;;;;;;4819471;29;20053;-66
2022/07/14 11:40:45;;;;;;;2.97;2.13;;;;;;;;;;4816202;29;20486;-65
2022/07/14 11:43:29;;;;;;;2.50;1.50;;;;;;;;;;4819634;29;20497;-64
2022/07/14 11:45:58;;;;;;;3.10;1.67;;;;;;;;;;4818416;29;20380;-65
2022/07/14 11:48:28;;;;;;;3.78;1.80;;;;;;;;;;4820412;29;20542;-67
2022/07/14 11:51:20;;;;;;;4.97;1.63;;;;;;;;;;4816218;29;20052;-68
2022/07/14 11:53:45;;;;;;;6.60;2.25;;;;;;;;;;4814082;29;20112;-65
2022/07/14 11:56:12;;;;;;;3.25;1.90;;;;;;;;;;4822028;29;20042;-66
2022/07/14 11:58:39;;;;;;;5.15;1.67;;;;;;;;;;4821875;29;20110;-65
2022/07/14 12:01:06;;;;;;;2.00;1.45;;;;;;;;;;4817552;29;20069;-65
2022/07/14 12:03:32;;;;;;;4.20;1.65;;;;;;;;;;4825692;29;20038;-67
2022/07/14 12:05:59;;;;;;;4.85;1.70;;;;;;;;;;4815538;29;20098;-65
2022/07/14 12:08:39;;;;;;;5.97;2.00;;;;;;;;;;4815965;29;20046;-65
2022/07/14 12:11:10;;;;;;;3.28;1.40;;;;;;;;;;4817913;29;20061;-66
2022/07/14 12:13:51;;;;;;;2.47;1.50;;;;;;;;;;4817286;29;20047;-65
2022/07/14 12:16:18;;;;;;;4.30;1.85;;;;;;;;;;4819387;29;20027;-65
2022/07/14 12:18:44;;;;;;;3.85;1.88;;;;;;;;;;4820842;29;20026;-65
2022/07/14 12:21:10;;;;;;;4.05;1.70;;;;;;;;;;4820682;29;20042;-64
2022/07/14 12:23:50;;;;;;;4.20;1.77;;;;;;;;;;4820934;29;20050;-65
2022/07/14 12:26:18;;;;;;;2.67;1.67;;;;;;;;;;4819902;29;20051;-65
2022/07/14 12:28:55;;;;;;;2.53;1.70;;;;;;;;;;4824893;29;20080;-66
2022/07/14 12:31:22;;;;;;;2.97;1.63;;;;;;;;;;4819356;29;20018;-66
2022/07/14 12:33:49;;;;;;;4.15;1.73;;;;;;;;;;4815427;29;20042;-67
2022/07/14 12:36:19;;;;;;;3.80;1.80;;;;;;;;;;4817491;29;20136;-65
2022/07/14 12:38:46;;;;;;;4.32;1.50;;;;;;;;;;4819848;29;20125;-66
2022/07/14 12:41:13;;;;;;;5.57;2.00;;;;;;;;;;4816772;29;20152;-64
2022/07/14 12:43:41;;;;;;;2.42;1.55;;;;;;;;;;4817278;29;20427;-66
2022/07/14 12:46:07;;;;;;;8.18;1.92;;;;;;;;;;4814147;29;20365;-66
2022/07/14 12:48:35;;;;;;;3.17;1.50;;;;;;;;;;4805877;29;20042;-67
2022/07/14 12:51:28;;;;;;;3.58;1.60;;;;;;;;;;4819088;29;20071;-67
2022/07/14 12:54:16;;;;;;;4.15;1.55;;;;;;;;;;4817741;29;20042;-65
2022/07/14 12:56:41;;;;;;;2.55;1.60;;;;;;;;;;4818177;29;20526;-66
2022/07/14 12:59:10;;;;;;;10.23;1.60;;;;;;;;;;4814041;29;20042;-66
2022/07/14 13:01:56;;;;;;;1.92;1.30;;;;;;;;;;4812096;29;20076;-66
2022/07/14 13:04:48;;;;;;;4.80;1.50;;;;;;;;;;4816244;29;20529;-65
2022/07/14 13:07:25;;;;;;;4.95;1.50;;;;;;;;;;4811840;29;20126;-67
2022/07/14 13:10:12;;;;;;;4.10;1.60;;;;;;;;;;4816521;29;20571;-68
2022/07/14 13:12:40;;;;;;;2.97;1.90;;;;;;;;;;4809975;29;20531;-67
2022/07/14 13:15:12;;;;;;;3.38;1.80;;;;;;;;;;4801132;29;20153;-66
2022/07/14 13:18:01;;;;;;;4.53;1.67;;;;;;;;;;4812295;29;20047;-64
2022/07/14 13:20:45;;;;;;;2.05;1.52;;;;;;;;;;4815519;29;20039;-66
2022/07/14 13:23:30;;;;;;;1.92;1.50;;;;;;;;;;4818425;29;20062;-64
2022/07/14 13:25:59;;;;;;;8.88;1.63;;;;;;;;;;4819991;29;20050;-65
2022/07/14 13:28:38;;;;;;;5.03;1.63;;;;;;;;;;4821197;29;20128;-66
2022/07/14 13:31:06;;;;;;;6.32;1.95;;;;;;;;;;4822182;29;20038;-66
2022/07/14 13:33:32;;;;;;;5.75;1.90;;;;;;;;;;4816286;29;20057;-65
2022/07/14 13:36:04;;;;;;;3.95;1.52;;;;;;;;;;4820110;29;20038;-67
2022/07/14 13:38:32;;;;;;;4.45;1.67;;;;;;;;;;4806718;29;20406;-67
2022/07/14 13:40:57;;;;;;;5.63;1.67;;;;;;;;;;4813720;29;20042;-66
2022/07/14 13:43:25;;;;;;;3.65;1.80;;;;;;;;;;4819227;29;20038;-67
2022/07/14 13:45:54;;;;;;;4.68;1.52;;;;;;;;;;4814874;29;20478;-67
2022/07/14 13:48:20;;;;;;;3.72;1.75;;;;;;;;;;4817046;29;20043;-65
2022/07/14 13:53:30;;;;;;;6.40;1.67;;;;;;;;;;4811258;29;20090;-66
2022/07/14 13:55:56;;;;;;;6.63;2.03;;;;;;;;;;4813949;29;20046;-63
2022/07/14 13:58:21;;;;;;;6.13;1.45;;;;;;;;;;4814252;29;20037;-64
2022/07/14 14:00:46;;;;;;;9.80;2.17;;;;;;;;;;4800034;29;22351;-63
2022/07/14 14:03:27;;;;;;;2.95;1.75;;;;;;;;;;4813099;29;20034;-63
2022/07/14 14:06:00;;;;;;;4.55;2.03;;;;;;;;;;4819898;29;20085;-66
2022/07/14 14:08:28;;;;;;;2.58;1.88;;;;;;;;;;4813091;29;20508;-65
2022/07/14 14:10:54;;;;;;;5.18;2.00;;;;;;;;;;4811143;29;20125;-67
2022/07/14 14:13:20;;;;;;;4.30;1.95;;;;;;;;;;4813936;29;20136;-63
2022/07/14 14:15:46;;;;;;;3.70;1.70;;;;;;;;;;4815944;29;20164;-66
2022/07/14 14:18:12;;;;;;;6.30;1.88;;;;;;;;;;4816951;29;20042;-66
2022/07/14 14:20:38;;;;;;;5.90;1.70;;;;;;;;;;4817029;29;20054;-65
2022/07/14 14:23:05;;;;;;;5.40;1.92;;;;;;;;;;4816036;29;20061;-67
2022/07/14 14:25:31;;;;;;;5.18;1.83;;;;;;;;;;4818111;29;20494;-68
2022/07/14 14:27:57;;;;;;;7.05;2.00;;;;;;;;;;4813645;29;20483;-65
2022/07/14 14:30:22;;;;;;;4.70;2.10;;;;;;;;;;4810551;29;20077;-65
2022/07/14 14:32:47;;;;;;;4.85;2.00;;;;;;;;;;4814529;29;20050;-66
2022/07/14 14:35:13;;;;;;;4.55;1.90;;;;;;;;;;4811507;29;20531;-66
2022/07/14 14:37:38;;;;;;;4.03;1.88;;;;;;;;;;4815770;29;20045;-67
2022/07/14 14:40:04;;;;;;;5.72;1.90;;;;;;;;;;4817520;29;20042;-65
2022/07/14 14:42:29;;;;;;;2.92;1.60;;;;;;;;;;4814165;29;20133;-66
2022/07/14 14:44:55;;;;;;;8.15;2.05;;;;;;;;;;4809280;29;20460;-66
2022/07/14 14:47:20;;;;;;;4.07;1.70;;;;;;;;;;4796795;29;20103;-65
2022/07/14 14:49:55;;;;;;;5.22;1.90;;;;;;;;;;4817397;29;20153;-64
2022/07/14 14:52:27;;;;;;;8.50;2.00;;;;;;;;;;4812627;29;20034;-64
2022/07/14 14:54:53;;;;;;;6.63;2.13;;;;;;;;;;4811683;29;20455;-67
2022/07/14 14:57:19;;;;;;;5.03;2.00;;;;;;;;;;4811975;29;20046;-64
2022/07/14 14:59:45;;;;;;;5.03;1.83;;;;;;;;;;4814292;29;20058;-66
2022/07/14 15:02:11;;;;;;;3.92;1.95;;;;;;;;;;4809959;29;20419;-66